Weather History for Harrisburg, IL

Change the Weather History Date:

Saturday, October 27, 2012

  Actual Average (KMWA) Record (KMWA)
Temperature  
Mean Temperature 44 °F -  
Max Temperature 53 °F 64 °F 82 °F (2014)
Min Temperature 35 °F 40 °F 26 °F (1980)
Degree Days  
Heating Degree Days 21    
Moisture  
Dew Point 34 °F    
Average Humidity 68    
Maximum Humidity 87    
Minimum Humidity 47    
Precipitation  
Precipitation 0.00 in - - ()
Sea Level Pressure  
Sea Level Pressure 30.19 in    
Wind  
Wind Speed 10 mph (North)    
Max Wind Speed 16 mph    
Max Gust Speed 25 mph    
Visibility 10 miles    
Events      
Averages and records for this station are not official NWS values.
T = Trace of Precipitation, MM = Missing Value Source: NWS Daily Summary

Daily Weather History Graph

Daily Weather History Graph

Search for Another Location

Airport:

Trip Planner

Search our weather history database for the weather conditions in past years. The results will help you decide how hot, cold, wet, or windy it might be!

Date:

Astronomy

Oct. 27, 2012 Rise Set
Actual Time 7:14 AM CDT 6:00 PM CDT
Civil Twilight 6:47 AM CDT 6:27 PM CDT
Nautical Twilight 6:17 AM CDT 6:58 PM CDT
Astronomical Twilight 5:46 AM CDT 7:28 PM CDT
Moon 4:45 PM CDT 5:11 AM CDT
Length of Visible Light 11h 39m
Length of Day
10h 45m
Waxing Gibbous, 96% of the Moon is Illuminated
Oct 27
Waxing Gibbous
Oct 29
Full
Nov 6
Last Quarter
Nov 13
New
Nov 20
First Quarter

Hourly Weather History & Observations

Time (CDT) Temp. Windchill Dew Point Humidity Pressure Visibility Wind Dir Wind Speed Gust Speed Precip Events Conditions
12:15 AM 42.8 °F 38.0 °F 33.8 °F 70% 30.23 in 10.0 mi North 8.1 mph - N/A   Clear
12:35 AM 41.0 °F 34.7 °F 33.8 °F 76% 30.22 in 10.0 mi North 10.4 mph - N/A   Clear
12:55 AM 41.0 °F 34.7 °F 33.8 °F 76% 30.22 in 10.0 mi North 10.4 mph 16.1 mph N/A   Clear
1:15 AM 41.0 °F 35.2 °F 33.8 °F 76% 30.22 in 10.0 mi North 9.2 mph - N/A   Clear
1:35 AM 41.0 °F 35.8 °F 33.8 °F 76% 30.22 in 10.0 mi North 8.1 mph - N/A   Clear
1:55 AM 41.0 °F 35.8 °F 33.8 °F 76% 30.22 in 10.0 mi North 8.1 mph - N/A   Clear
2:15 AM 41.0 °F 35.2 °F 33.8 °F 76% 30.22 in 10.0 mi North 9.2 mph - N/A   Clear
2:35 AM 41.0 °F 35.8 °F 33.8 °F 76% 30.22 in 10.0 mi North 8.1 mph - N/A   Clear
2:55 AM 39.2 °F 33.6 °F 33.8 °F 81% 30.22 in 10.0 mi North 8.1 mph - N/A   Clear
3:15 AM 39.2 °F 35.0 °F 33.8 °F 81% 30.21 in 10.0 mi North 5.8 mph - N/A   Clear
3:35 AM 39.2 °F 33.6 °F 33.8 °F 81% 30.21 in 10.0 mi NNW 8.1 mph - N/A   Clear
3:55 AM 37.4 °F 32.1 °F 32.0 °F 81% 30.21 in 10.0 mi NNW 6.9 mph - N/A   Clear
4:15 AM 37.4 °F 31.4 °F 33.8 °F 87% 30.21 in 10.0 mi NNW 8.1 mph - N/A   Clear
4:35 AM 37.4 °F 31.4 °F 33.8 °F 87% 30.21 in 10.0 mi NNW 8.1 mph - N/A   Clear
4:55 AM 37.4 °F 32.1 °F 33.8 °F 87% 30.20 in 10.0 mi North 6.9 mph - N/A   Clear
5:15 AM 37.4 °F 32.1 °F 33.8 °F 87% 30.20 in 10.0 mi North 6.9 mph - N/A   Clear
5:35 AM 37.4 °F 32.1 °F 33.8 °F 87% 30.20 in 10.0 mi North 6.9 mph - N/A   Clear
5:55 AM 37.4 °F 32.1 °F 32.0 °F 81% 30.21 in 10.0 mi North 6.9 mph - N/A   Clear
6:15 AM 37.4 °F 31.4 °F 32.0 °F 81% 30.20 in 10.0 mi North 8.1 mph - N/A   Clear
6:55 AM 35.6 °F 29.9 °F 32.0 °F 87% 30.21 in 10.0 mi North 6.9 mph - N/A   Clear
7:15 AM 35.6 °F 29.2 °F 32.0 °F 87% 30.22 in 10.0 mi North 8.1 mph - N/A   Clear
7:35 AM 37.4 °F 32.8 °F 32.0 °F 81% 30.22 in 10.0 mi North 5.8 mph - N/A   Clear
7:55 AM 37.4 °F 31.4 °F 33.8 °F 87% 30.23 in 10.0 mi North 8.1 mph - N/A   Clear
8:15 AM 37.4 °F 31.4 °F 33.8 °F 87% 30.23 in 10.0 mi North 8.1 mph - N/A   Clear
8:35 AM 41.0 °F 34.7 °F 33.8 °F 76% 30.23 in 10.0 mi North 10.4 mph 18.4 mph N/A   Clear
8:55 AM 41.0 °F 35.2 °F 33.8 °F 76% 30.23 in 10.0 mi North 9.2 mph 17.3 mph N/A   Clear
9:15 AM 42.8 °F 35.8 °F 33.8 °F 70% 30.23 in 10.0 mi North 13.8 mph 17.3 mph N/A   Clear
9:35 AM 42.8 °F 36.2 °F 33.8 °F 70% 30.23 in 10.0 mi North 12.7 mph 16.1 mph N/A   Clear
9:55 AM 44.6 °F 38.4 °F 35.6 °F 71% 30.23 in 10.0 mi North 12.7 mph 16.1 mph N/A   Clear
10:15 AM 44.6 °F 39.2 °F 33.8 °F 66% 30.23 in 10.0 mi North 10.4 mph 16.1 mph N/A   Clear
10:35 AM 44.6 °F 38.8 °F 35.6 °F 71% 30.23 in 10.0 mi North 11.5 mph 17.3 mph N/A   Clear
10:55 AM 46.4 °F 40.4 °F 35.6 °F 66% 30.23 in 10.0 mi North 13.8 mph 18.4 mph N/A   Clear
11:15 AM 48.2 °F - 35.6 °F 62% 30.23 in 10.0 mi North 13.8 mph - N/A   Clear
11:35 AM 48.2 °F - 35.6 °F 62% 30.22 in 10.0 mi North 13.8 mph - N/A   Clear
11:55 AM 50.0 °F - 35.6 °F 58% 30.21 in 10.0 mi North 11.5 mph 17.3 mph N/A   Clear
12:15 PM 50.0 °F - 35.6 °F 58% 30.20 in 10.0 mi NNE 13.8 mph 18.4 mph N/A   Clear
12:35 PM 51.8 °F - 35.6 °F 54% 30.20 in 10.0 mi North 11.5 mph 23.0 mph N/A   Clear
12:55 PM 51.8 °F - 35.6 °F 54% 30.19 in 10.0 mi North 16.1 mph 19.6 mph N/A   Clear
1:15 PM 51.8 °F - 35.6 °F 54% 30.18 in 10.0 mi North 15.0 mph - N/A   Clear
1:35 PM 51.8 °F - 33.8 °F 50% 30.18 in 10.0 mi North 13.8 mph 19.6 mph N/A   Clear
1:55 PM 53.6 °F - 33.8 °F 47% 30.17 in 10.0 mi NNW 12.7 mph 19.6 mph N/A   Clear
2:15 PM 53.6 °F - 33.8 °F 47% 30.17 in 10.0 mi North 11.5 mph 19.6 mph N/A   Clear
2:35 PM 53.6 °F - 33.8 °F 47% 30.15 in 10.0 mi North 16.1 mph 21.9 mph N/A   Clear
2:55 PM 53.6 °F - 33.8 °F 47% 30.15 in 10.0 mi North 12.7 mph 20.7 mph N/A   Clear
3:15 PM 53.6 °F - 33.8 °F 47% 30.14 in 10.0 mi North 16.1 mph 23.0 mph N/A   Clear
3:35 PM 53.6 °F - 33.8 °F 47% 30.14 in 10.0 mi North 13.8 mph 25.3 mph N/A   Clear
3:55 PM 53.6 °F - 35.6 °F 51% 30.14 in 10.0 mi North 16.1 mph 23.0 mph N/A   Clear
4:15 PM 53.6 °F - 33.8 °F 47% 30.14 in 10.0 mi North 13.8 mph 21.9 mph N/A   Clear
4:35 PM 53.6 °F - 33.8 °F 47% 30.15 in 10.0 mi North 15.0 mph 20.7 mph N/A   Clear
4:55 PM 51.8 °F - 35.6 °F 54% 30.15 in 10.0 mi North 13.8 mph 19.6 mph N/A   Clear
5:15 PM 51.8 °F - 33.8 °F 50% 30.16 in 10.0 mi North 13.8 mph 20.7 mph N/A   Clear
5:35 PM 51.8 °F - 33.8 °F 50% 30.16 in 10.0 mi North 11.5 mph 19.6 mph N/A   Clear
5:55 PM 50.0 °F - 33.8 °F 54% 30.17 in 10.0 mi North 6.9 mph - N/A   Clear
6:15 PM 50.0 °F - 33.8 °F 54% 30.17 in 10.0 mi North 10.4 mph - N/A   Clear
6:35 PM 48.2 °F - 33.8 °F 58% 30.18 in 10.0 mi North 11.5 mph 16.1 mph N/A   Clear
6:55 PM 46.4 °F 41.5 °F 33.8 °F 62% 30.18 in 10.0 mi North 10.4 mph 18.4 mph N/A   Clear
7:15 PM 46.4 °F 42.4 °F 33.8 °F 62% 30.18 in 10.0 mi North 8.1 mph - N/A   Clear
7:35 PM 46.4 °F 41.5 °F 33.8 °F 62% 30.17 in 10.0 mi North 10.4 mph - N/A   Clear
7:55 PM 46.4 °F 42.4 °F 33.8 °F 62% 30.17 in 10.0 mi North 8.1 mph - N/A   Clear
8:15 PM 44.6 °F 40.2 °F 33.8 °F 66% 30.17 in 10.0 mi North 8.1 mph - N/A   Clear
8:35 PM 44.6 °F 40.7 °F 33.8 °F 66% 30.17 in 10.0 mi North 6.9 mph - N/A   Clear
8:55 PM 44.6 °F 40.7 °F 33.8 °F 66% 30.18 in 10.0 mi North 6.9 mph - N/A   Clear
9:15 PM 44.6 °F 40.7 °F 33.8 °F 66% 30.18 in 10.0 mi NNW 6.9 mph - N/A   Clear
9:35 PM 42.8 °F 39.3 °F 33.8 °F 70% 30.18 in 10.0 mi NNW 5.8 mph - N/A   Clear
9:55 PM 42.8 °F 38.0 °F 33.8 °F 70% 30.17 in 10.0 mi North 8.1 mph - N/A   Clear
10:15 PM 42.8 °F 38.0 °F 33.8 °F 70% 30.18 in 10.0 mi North 8.1 mph - N/A   Clear
10:35 PM 42.8 °F 38.6 °F 33.8 °F 70% 30.17 in 10.0 mi North 6.9 mph - N/A   Clear
10:55 PM 42.8 °F 38.6 °F 33.8 °F 70% 30.16 in 10.0 mi North 6.9 mph - N/A   Clear
11:15 PM 42.8 °F 38.6 °F 33.8 °F 70% 30.16 in 10.0 mi North 6.9 mph - N/A   Clear
11:35 PM 41.0 °F 36.4 °F 33.8 °F 76% 30.16 in 10.0 mi North 6.9 mph - N/A   Clear
11:55 PM 41.0 °F 35.8 °F 32.0 °F 70% 30.16 in 10.0 mi NNW 8.1 mph - N/A   Clear